Terminal Aerodrome Forecast
Issued by NWS

Home | Current Version | Previous Version | Graphics & Text | Print | Product List | Glossary On
Versions: 1 2 3 4 5 6 7 8 9 10 11 12 13 14 15 16 17 18 19 20 21 22 23 24 25
000
FTUS43 KBIS 201500 AAA
TAFMOT
TAF AMD
KMOT 201534Z 2016/2112 15010KT P6SM BKN150
      TEMPO 2016/2018 30015G23KT
     FM202000 16013KT P6SM -SHRA BKN050
      TEMPO 2021/2101 3SM TSRA BKN030CB OVC050
     FM211000 30011KT P6SM BKN050=

USA.gov is the U.S. government's official web portal to all federal, state and local government web resources and services.